Time;durP1;ratioP1;P1;durP2;ratioP2;P2;SDS_P1;SDS_P2;PMS_P1;PMS_P2;Temp;Humidity;BMP_temperature;BMP_pressure;BME280_temperature;BME280_humidity;BME280_pressure;Samples;Min_cycle;Max_cycle;Signal;HPM_P1;HPM_P2
2023/06/20 00:00:06;;;;;;;8.60;5.07;;;21.00;92.00;;;;;;5070655;28;20032;-72
2023/06/20 00:02:32;;;;;;;6.63;4.22;;;21.00;92.00;;;;;;5071909;28;20111;-71
2023/06/20 00:05:00;;;;;;;6.22;4.45;;;21.00;92.00;;;;;;5071260;28;20123;-71
2023/06/20 00:07:26;;;;;;;8.30;4.80;;;21.00;91.90;;;;;;5071698;28;20036;-71
2023/06/20 00:09:51;;;;;;;7.57;4.78;;;21.00;91.90;;;;;;5071344;28;20398;-72
2023/06/20 00:12:17;;;;;;;5.68;4.63;;;21.00;91.70;;;;;;5071611;28;20024;-71
2023/06/20 00:14:42;;;;;;;7.15;4.43;;;21.00;91.70;;;;;;5071216;28;20451;-71
2023/06/20 00:17:08;;;;;;;7.45;4.70;;;21.00;91.60;;;;;;5070728;28;20393;-71
2023/06/20 00:19:34;;;;;;;7.10;5.03;;;21.00;91.50;;;;;;5071859;28;20024;-71
2023/06/20 00:22:02;;;;;;;6.30;4.30;;;21.00;91.50;;;;;;5071132;28;20027;-72
2023/06/20 00:24:28;;;;;;;7.45;5.10;;;21.10;91.50;;;;;;5071184;28;20025;-71
2023/06/20 00:26:56;;;;;;;6.38;4.30;;;21.10;91.40;;;;;;5069172;28;20033;-71
2023/06/20 00:29:21;;;;;;;6.35;4.43;;;21.00;91.40;;;;;;5071657;28;20032;-71
2023/06/20 00:31:47;;;;;;;5.53;3.97;;;21.00;91.30;;;;;;5070942;28;20111;-71
2023/06/20 00:34:12;;;;;;;8.00;5.30;;;21.10;91.30;;;;;;5069009;28;20046;-71
2023/06/20 00:36:38;;;;;;;7.88;5.07;;;21.10;91.20;;;;;;5071198;28;20394;-71
2023/06/20 00:39:03;;;;;;;6.07;4.53;;;21.10;91.20;;;;;;5069711;28;20023;-71
2023/06/20 00:41:31;;;;;;;6.30;4.20;;;21.10;91.10;;;;;;5069938;28;20032;-71
2023/06/20 00:44:02;;;;;;;9.13;4.70;;;21.10;91.10;;;;;;5070833;28;20013;-71
2023/06/20 00:46:34;;;;;;;6.90;4.72;;;21.10;91.10;;;;;;5070765;28;20399;-71
2023/06/20 00:49:03;;;;;;;6.38;4.40;;;21.00;91.10;;;;;;5070519;28;20478;-71
2023/06/20 00:51:29;;;;;;;7.93;4.72;;;21.10;91.20;;;;;;5071216;28;20037;-71
2023/06/20 00:53:56;;;;;;;8.98;5.80;;;21.00;91.20;;;;;;5070647;28;20103;-71
2023/06/20 00:56:23;;;;;;;8.43;4.55;;;21.00;91.20;;;;;;5071063;28;20025;-71
2023/06/20 00:58:49;;;;;;;6.90;4.22;;;21.00;91.30;;;;;;5070640;28;20032;-72
2023/06/20 01:01:16;;;;;;;5.80;4.57;;;21.00;91.30;;;;;;5070039;28;20045;-71
2023/06/20 01:03:46;;;;;;;5.53;4.15;;;20.90;91.30;;;;;;5071500;28;20021;-71
2023/06/20 01:06:43;;;;;;;6.93;4.78;;;21.00;91.40;;;;;;5070764;28;20044;-71
2023/06/20 01:09:48;;;;;;;7.50;4.80;;;20.90;91.30;;;;;;5070631;28;20377;-71
2023/06/20 01:12:35;;;;;;;7.75;5.22;;;21.00;91.40;;;;;;5070781;28;20478;-71
2023/06/20 01:15:23;;;;;;;7.13;5.05;;;20.90;91.50;;;;;;5070213;28;20111;-71
2023/06/20 01:18:08;;;;;;;10.98;5.50;;;20.90;91.60;;;;;;5070408;28;20044;-71
2023/06/20 01:20:43;;;;;;;12.30;5.35;;;20.90;91.60;;;;;;5071076;28;20033;-71
2023/06/20 01:23:13;;;;;;;8.85;5.50;;;20.90;91.80;;;;;;5070619;28;20039;-71
2023/06/20 01:25:51;;;;;;;6.95;4.55;;;20.80;91.80;;;;;;5070694;28;20036;-71
2023/06/20 01:28:20;;;;;;;7.13;4.47;;;20.80;91.90;;;;;;5072779;28;20516;-71
2023/06/20 01:30:50;;;;;;;7.68;4.90;;;20.80;91.90;;;;;;5073322;28;20025;-71
2023/06/20 01:33:22;;;;;;;7.40;4.75;;;20.80;91.90;;;;;;5074637;28;20211;-71
2023/06/20 01:35:48;;;;;;;7.38;5.05;;;20.80;91.90;;;;;;5074254;28;20032;-71
2023/06/20 01:38:15;;;;;;;8.85;5.13;;;20.80;91.90;;;;;;5057490;28;20063;-71
2023/06/20 01:40:45;;;;;;;7.75;5.03;;;20.80;91.90;;;;;;5054798;28;20025;-71
2023/06/20 01:43:12;;;;;;;7.78;4.95;;;20.80;91.90;;;;;;5073634;28;20036;-71
2023/06/20 01:45:43;;;;;;;9.40;5.00;;;20.80;92.00;;;;;;5074207;28;20035;-71
2023/06/20 01:48:09;;;;;;;8.32;5.40;;;20.80;92.10;;;;;;5074155;28;20626;-71
2023/06/20 01:50:37;;;;;;;7.60;5.35;;;20.70;92.10;;;;;;5073747;28;20032;-71
2023/06/20 01:53:05;;;;;;;8.88;5.38;;;20.70;92.10;;;;;;5073747;28;20032;-71
2023/06/20 01:55:33;;;;;;;6.93;5.55;;;20.70;92.10;;;;;;5074046;28;20394;-71
2023/06/20 01:58:00;;;;;;;7.70;5.90;;;20.70;92.20;;;;;;5073708;28;20375;-71
2023/06/20 02:00:27;;;;;;;6.47;5.35;;;20.70;92.30;;;;;;5073693;28;20048;-71
2023/06/20 02:02:56;;;;;;;8.68;5.32;;;20.70;92.30;;;;;;5073859;28;20028;-71
2023/06/20 02:05:23;;;;;;;6.93;5.15;;;20.70;92.60;;;;;;5073866;28;20036;-71
2023/06/20 02:07:51;;;;;;;11.82;6.30;;;20.70;92.30;;;;;;5073680;28;20486;-72
2023/06/20 02:10:19;;;;;;;9.32;4.82;;;20.70;92.40;;;;;;5073646;28;20374;-71
2023/06/20 02:12:45;;;;;;;10.80;6.28;;;20.70;92.40;;;;;;5074035;28;20082;-71
2023/06/20 02:15:11;;;;;;;7.40;5.75;;;20.70;92.40;;;;;;5072916;28;20428;-71
2023/06/20 02:17:38;;;;;;;7.50;5.75;;;20.70;92.40;;;;;;5073662;28;20386;-71
2023/06/20 02:20:05;;;;;;;8.38;6.38;;;20.70;92.50;;;;;;5073305;28;20029;-71
2023/06/20 02:22:32;;;;;;;8.35;6.28;;;20.70;92.60;;;;;;5074108;28;20085;-71
2023/06/20 02:25:04;;;;;;;9.93;5.85;;;20.60;92.60;;;;;;5072810;28;20154;-71
2023/06/20 02:27:30;;;;;;;7.63;6.13;;;20.70;92.70;;;;;;5073738;28;20485;-71
2023/06/20 02:29:57;;;;;;;9.80;6.28;;;20.60;92.70;;;;;;5072869;28;20127;-71
2023/06/20 02:32:24;;;;;;;12.55;7.05;;;20.70;93.10;;;;;;5073574;28;20021;-71
2023/06/20 02:34:51;;;;;;;9.27;6.30;;;20.60;92.80;;;;;;5073237;28;20390;-71
2023/06/20 02:37:16;;;;;;;6.95;5.53;;;20.60;92.80;;;;;;5054192;28;20029;-71
2023/06/20 02:39:42;;;;;;;7.53;5.18;;;20.60;92.80;;;;;;5062697;28;20096;-71
2023/06/20 02:42:08;;;;;;;9.32;6.68;;;20.60;92.80;;;;;;5072931;28;20229;-71
2023/06/20 02:44:34;;;;;;;10.18;6.68;;;20.60;92.90;;;;;;5072957;28;20029;-71
2023/06/20 02:47:28;;;;;;;9.30;6.55;;;20.70;93.00;;;;;;5072867;28;20024;-71
2023/06/20 02:50:34;;;;;;;7.88;6.85;;;20.60;93.00;;;;;;5070482;28;20020;-71
2023/06/20 02:53:11;;;;;;;8.80;6.82;;;20.60;93.00;;;;;;5066492;28;20052;-71
2023/06/20 02:55:49;;;;;;;8.23;6.10;;;20.60;93.10;;;;;;5073163;28;20024;-71
2023/06/20 02:58:20;;;;;;;10.07;7.30;;;20.60;93.20;;;;;;5072505;28;20410;-71
2023/06/20 03:00:49;;;;;;;9.32;6.40;;;20.60;93.30;;;;;;5072816;28;20181;-71
2023/06/20 03:03:20;;;;;;;9.00;6.82;;;20.60;93.30;;;;;;5073014;28;20039;-71
2023/06/20 03:05:46;;;;;;;8.98;6.53;;;20.60;93.30;;;;;;5072926;28;20051;-71
2023/06/20 03:08:13;;;;;;;11.88;7.55;;;20.60;93.40;;;;;;5072256;28;20031;-71
2023/06/20 03:10:40;;;;;;;11.63;6.82;;;20.50;93.40;;;;;;5072582;28;20016;-71
2023/06/20 03:13:06;;;;;;;9.50;6.85;;;20.50;93.40;;;;;;5071573;28;20020;-71
2023/06/20 03:15:32;;;;;;;9.95;7.55;;;20.50;93.50;;;;;;5071610;28;20454;-71
2023/06/20 03:18:00;;;;;;;10.05;6.97;;;20.50;93.50;;;;;;5071912;28;20056;-71
2023/06/20 03:20:27;;;;;;;9.43;7.38;;;20.50;93.50;;;;;;5072255;28;20029;-71
2023/06/20 03:22:53;;;;;;;10.93;7.38;;;20.50;93.60;;;;;;5071003;28;20040;-71
2023/06/20 03:25:18;;;;;;;13.77;7.63;;;20.50;93.70;;;;;;5072285;28;20497;-71
2023/06/20 03:27:44;;;;;;;9.55;7.45;;;20.50;93.70;;;;;;5071980;28;20561;-71
2023/06/20 03:30:10;;;;;;;10.15;6.68;;;20.50;93.70;;;;;;5071947;28;20028;-71
2023/06/20 03:32:35;;;;;;;9.48;7.65;;;20.50;93.80;;;;;;5072160;28;20017;-71
2023/06/20 03:35:04;;;;;;;7.57;6.47;;;20.40;93.90;;;;;;5064038;28;20023;-71
2023/06/20 03:37:29;;;;;;;9.82;7.13;;;20.40;93.90;;;;;;5072406;28;20119;-71
2023/06/20 03:39:55;;;;;;;10.50;6.90;;;20.40;94.00;;;;;;5071941;28;20112;-71
2023/06/20 03:42:20;;;;;;;9.68;6.93;;;20.30;94.00;;;;;;5071445;28;20047;-71
2023/06/20 03:44:46;;;;;;;8.63;6.93;;;20.40;94.10;;;;;;5072086;28;20419;-71
2023/06/20 03:47:11;;;;;;;11.70;8.38;;;20.30;94.20;;;;;;5070276;28;20067;-71
2023/06/20 03:49:37;;;;;;;10.60;8.13;;;20.30;94.30;;;;;;5072407;28;20013;-71
2023/06/20 03:52:03;;;;;;;9.77;7.18;;;20.30;94.40;;;;;;5070886;28;20020;-71
2023/06/20 03:54:28;;;;;;;10.57;7.63;;;20.30;94.40;;;;;;5072164;28;20752;-71
2023/06/20 03:56:54;;;;;;;8.88;7.57;;;20.20;94.50;;;;;;5071074;28;20497;-71
2023/06/20 03:59:19;;;;;;;11.30;8.48;;;20.30;94.60;;;;;;5071972;28;20055;-71
2023/06/20 04:01:45;;;;;;;11.57;7.78;;;20.20;94.70;;;;;;5071696;28;20063;-71
2023/06/20 04:04:12;;;;;;;10.52;8.00;;;20.20;94.70;;;;;;5071247;28;20112;-71
2023/06/20 04:06:37;;;;;;;12.23;8.00;;;20.20;94.80;;;;;;5071849;28;20040;-71
2023/06/20 04:09:04;;;;;;;10.68;8.57;;;20.20;94.90;;;;;;5071098;28;20094;-71
2023/06/20 04:11:29;;;;;;;10.85;8.77;;;20.20;95.00;;;;;;5070844;28;20115;-71
2023/06/20 04:13:55;;;;;;;10.60;8.27;;;20.30;95.10;;;;;;5071264;28;20150;-71
2023/06/20 04:16:21;;;;;;;12.30;8.73;;;20.20;95.10;;;;;;5071570;28;20508;-71
2023/06/20 04:18:46;;;;;;;10.45;8.43;;;20.30;95.30;;;;;;5071354;28;20066;-71
2023/06/20 04:21:12;;;;;;;14.55;8.68;;;20.30;95.30;;;;;;5071469;28;20086;-71
2023/06/20 04:23:37;;;;;;;10.90;8.98;;;20.30;95.30;;;;;;5071533;28;20035;-71
2023/06/20 04:26:03;;;;;;;13.90;9.15;;;20.30;95.30;;;;;;5070444;28;20075;-71
2023/06/20 04:28:29;;;;;;;12.50;8.90;;;20.40;95.30;;;;;;5071603;28;20064;-71
2023/06/20 04:30:55;;;;;;;12.05;8.27;;;20.40;95.30;;;;;;5071130;28;20398;-71
2023/06/20 04:33:22;;;;;;;11.65;8.38;;;20.40;95.30;;;;;;5069070;28;20012;-71
2023/06/20 04:35:48;;;;;;;10.55;8.15;;;20.40;95.60;;;;;;5071004;28;20039;-71
2023/06/20 04:38:13;;;;;;;11.02;7.80;;;20.40;95.40;;;;;;5071162;28;20025;-71
2023/06/20 04:40:39;;;;;;;10.32;7.85;;;20.40;95.40;;;;;;5070800;28;20501;-71
2023/06/20 04:43:05;;;;;;;10.43;8.20;;;20.50;95.50;;;;;;5070932;28;20031;-71
2023/06/20 04:45:30;;;;;;;9.13;7.43;;;20.50;95.50;;;;;;5071320;28;20178;-71
2023/06/20 04:47:56;;;;;;;10.15;7.68;;;20.50;95.70;;;;;;5071134;28;20425;-71
2023/06/20 04:50:22;;;;;;;9.40;6.97;;;20.60;95.80;;;;;;5070749;28;20051;-71
2023/06/20 04:52:48;;;;;;;9.38;7.45;;;20.60;95.90;;;;;;5071248;28;20029;-71
2023/06/20 04:55:14;;;;;;;10.27;6.90;;;20.60;96.00;;;;;;5071149;28;20075;-71
2023/06/20 04:57:39;;;;;;;8.98;7.00;;;20.60;96.20;;;;;;5070930;28;20021;-71
2023/06/20 05:00:12;;;;;;;9.48;6.95;;;20.60;96.40;;;;;;5070568;28;20024;-71
2023/06/20 05:02:44;;;;;;;9.57;7.85;;;20.60;96.40;;;;;;5072320;28;20072;-70
2023/06/20 05:05:10;;;;;;;9.50;7.90;;;20.60;96.40;;;;;;5074350;28;20036;-70
2023/06/20 05:07:36;;;;;;;11.60;8.63;;;20.60;96.40;;;;;;5074870;28;20445;-70
2023/06/20 05:10:02;;;;;;;11.77;8.38;;;20.70;96.50;;;;;;5074755;28;20078;-70
2023/06/20 05:12:28;;;;;;;9.60;8.50;;;20.90;96.50;;;;;;5075126;28;20021;-70
2023/06/20 05:14:53;;;;;;;10.68;9.18;;;21.20;96.50;;;;;;5074804;28;20043;-70
2023/06/20 05:17:19;;;;;;;11.27;8.25;;;21.30;96.10;;;;;;5074918;28;20402;-70
2023/06/20 05:19:44;;;;;;;8.88;7.70;;;21.40;96.00;;;;;;5074282;28;20053;-70
2023/06/20 05:22:10;;;;;;;11.23;8.40;;;21.50;95.90;;;;;;5072772;28;20027;-70
2023/06/20 05:24:35;;;;;;;11.35;8.00;;;21.50;95.70;;;;;;5074209;28;20449;-70
2023/06/20 05:27:01;;;;;;;11.20;7.40;;;21.50;95.80;;;;;;5074478;28;20028;-70
2023/06/20 05:29:26;;;;;;;8.98;7.70;;;21.50;96.00;;;;;;5074361;28;20378;-70
2023/06/20 05:31:52;;;;;;;11.40;9.00;;;21.40;96.30;;;;;;5072969;28;20020;-70
2023/06/20 05:34:17;;;;;;;15.38;9.80;;;21.30;96.20;;;;;;5074679;28;20104;-70
2023/06/20 05:36:43;;;;;;;12.98;9.18;;;21.30;96.20;;;;;;5074409;28;20043;-70
2023/06/20 05:39:11;;;;;;;10.52;8.93;;;21.30;96.50;;;;;;5073680;28;20032;-70
2023/06/20 05:41:37;;;;;;;11.52;9.93;;;21.40;96.60;;;;;;5074290;28;20496;-71
2023/06/20 05:44:02;;;;;;;11.57;8.55;;;21.60;96.30;;;;;;5074116;28;20029;-70
2023/06/20 05:46:28;;;;;;;15.50;9.93;;;22.00;96.20;;;;;;5072963;28;20452;-71
2023/06/20 05:48:54;;;;;;;11.68;8.70;;;22.30;95.60;;;;;;5073960;28;20078;-71
2023/06/20 05:51:19;;;;;;;11.60;9.25;;;22.60;95.00;;;;;;5074260;28;20024;-70
2023/06/20 05:53:45;;;;;;;14.90;9.95;;;22.90;94.20;;;;;;5074591;28;20074;-71
2023/06/20 05:56:10;;;;;;;14.02;9.98;;;23.20;93.40;;;;;;5073338;28;20024;-71
2023/06/20 05:58:36;;;;;;;12.02;9.82;;;23.30;93.00;;;;;;5074207;28;20032;-71
2023/06/20 06:01:04;;;;;;;10.68;9.27;;;23.50;92.50;;;;;;5073466;28;20087;-70
2023/06/20 06:03:32;;;;;;;10.43;9.23;;;23.50;92.40;;;;;;5074366;28;20059;-71
2023/06/20 06:05:57;;;;;;;11.98;9.57;;;23.70;92.10;;;;;;5073312;28;20044;-71
2023/06/20 06:08:23;;;;;;;14.32;9.15;;;23.80;91.80;;;;;;5074316;28;20016;-71
2023/06/20 06:10:48;;;;;;;13.95;9.95;;;23.80;91.60;;;;;;5073643;28;20157;-71
2023/06/20 06:13:14;;;;;;;16.63;10.82;;;24.00;91.40;;;;;;5073200;28;20033;-71
2023/06/20 06:15:39;;;;;;;13.48;9.85;;;24.10;91.10;;;;;;5074106;28;20519;-71
2023/06/20 06:18:08;;;;;;;10.57;9.32;;;24.20;90.90;;;;;;5073251;28;20027;-71
2023/06/20 06:20:34;;;;;;;11.02;9.73;;;24.20;90.90;;;;;;5073725;28;20039;-71
2023/06/20 06:22:59;;;;;;;12.82;9.57;;;24.30;91.00;;;;;;5073201;28;20020;-71
2023/06/20 06:25:25;;;;;;;10.45;9.18;;;24.40;90.80;;;;;;5073658;28;20033;-71
2023/06/20 06:27:51;;;;;;;12.88;11.13;;;24.40;90.60;;;;;;5073311;28;20028;-71
2023/06/20 06:30:16;;;;;;;11.90;10.70;;;24.30;90.50;;;;;;5067468;28;20060;-71
2023/06/20 06:32:44;;;;;;;12.18;9.73;;;24.30;90.60;;;;;;5060754;28;20082;-71
2023/06/20 06:35:12;;;;;;;12.07;9.70;;;24.30;90.80;;;;;;5072476;28;20029;-71
2023/06/20 06:37:40;;;;;;;13.52;10.32;;;24.30;90.60;;;;;;5073224;28;20051;-71
2023/06/20 06:40:07;;;;;;;15.57;9.07;;;24.30;90.60;;;;;;5072892;28;20020;-71
2023/06/20 06:42:33;;;;;;;11.57;10.38;;;24.30;90.70;;;;;;5073462;28;20064;-70
2023/06/20 06:44:59;;;;;;;11.63;10.48;;;24.30;90.70;;;;;;5072823;28;20055;-70
2023/06/20 06:47:25;;;;;;;12.15;10.75;;;24.30;90.90;;;;;;5071647;28;20092;-70
2023/06/20 06:49:50;;;;;;;10.48;9.38;;;24.40;91.20;;;;;;5071776;28;20096;-70
2023/06/20 06:52:16;;;;;;;11.65;10.52;;;24.60;91.00;;;;;;5073086;28;20024;-70
2023/06/20 06:54:41;;;;;;;14.27;10.38;;;24.80;90.70;;;;;;5073015;28;20051;-70
2023/06/20 06:57:07;;;;;;;13.02;10.52;;;25.00;90.40;;;;;;5072608;28;20017;-70
2023/06/20 06:59:32;;;;;;;12.38;9.57;;;25.00;90.20;;;;;;5073021;28;20024;-70
2023/06/20 07:01:58;;;;;;;11.80;9.98;;;25.10;90.10;;;;;;5071692;28;20052;-71
2023/06/20 07:04:24;;;;;;;11.13;9.32;;;25.10;90.20;;;;;;5073456;28;20436;-71
2023/06/20 07:06:49;;;;;;;12.63;9.52;;;25.30;90.30;;;;;;5072372;28;20033;-71
2023/06/20 07:09:15;;;;;;;10.98;9.88;;;25.60;90.00;;;;;;5072716;28;20123;-71
2023/06/20 07:11:40;;;;;;;12.18;8.95;;;25.90;89.20;;;;;;5072797;28;20537;-71
2023/06/20 07:14:06;;;;;;;9.65;8.63;;;25.90;88.90;;;;;;5072044;28;20112;-71
2023/06/20 07:16:32;;;;;;;11.00;8.73;;;26.00;88.90;;;;;;5072690;28;20058;-71
2023/06/20 07:19:00;;;;;;;12.65;9.27;;;26.20;88.80;;;;;;5072463;28;20352;-71
2023/06/20 07:21:26;;;;;;;11.75;9.45;;;26.30;88.40;;;;;;5072629;28;20060;-71
2023/06/20 07:23:52;;;;;;;12.05;9.05;;;26.30;87.80;;;;;;5072129;28;20028;-71
2023/06/20 07:26:18;;;;;;;12.70;9.57;;;26.30;87.60;;;;;;5070663;28;20036;-71
2023/06/20 07:28:43;;;;;;;11.52;9.57;;;26.30;88.00;;;;;;5071269;28;20016;-71
2023/06/20 07:31:18;;;;;;;16.63;11.05;;;26.40;87.90;;;;;;5072005;28;20068;-71
2023/06/20 07:33:44;;;;;;;10.70;9.25;;;26.30;87.70;;;;;;5072431;28;20033;-71
2023/06/20 07:36:09;;;;;;;8.68;7.78;;;26.40;87.60;;;;;;5071783;28;20027;-71
2023/06/20 07:38:35;;;;;;;10.98;8.32;;;26.50;87.60;;;;;;5072022;28;20052;-71
2023/06/20 07:41:01;;;;;;;11.35;10.07;;;26.70;87.40;;;;;;5071605;28;20036;-71
2023/06/20 07:43:26;;;;;;;11.13;9.43;;;26.80;87.10;;;;;;5070739;28;20089;-71
2023/06/20 07:45:52;;;;;;;10.32;9.23;;;26.90;87.10;;;;;;5071790;28;20040;-71
2023/06/20 07:48:17;;;;;;;13.25;10.95;;;27.10;86.50;;;;;;5072425;28;20027;-71
2023/06/20 07:50:43;;;;;;;9.57;8.20;;;27.10;85.50;;;;;;5072186;28;20111;-71
2023/06/20 07:53:08;;;;;;;9.13;8.15;;;27.20;85.70;;;;;;5071452;28;20037;-71
2023/06/20 07:55:34;;;;;;;9.48;8.38;;;27.30;85.30;;;;;;5071713;28;20043;-71
2023/06/20 07:57:59;;;;;;;10.07;8.68;;;27.40;85.10;;;;;;5071715;28;20025;-71
2023/06/20 08:00:25;;;;;;;13.85;8.73;;;27.50;84.90;;;;;;5071792;28;20079;-71
2023/06/20 08:02:52;;;;;;;12.40;9.68;;;27.60;85.00;;;;;;5071915;28;20020;-71
2023/06/20 08:05:17;;;;;;;10.05;8.40;;;27.60;84.60;;;;;;5071463;28;20032;-71
2023/06/20 08:07:43;;;;;;;8.88;7.60;;;27.60;84.70;;;;;;5071256;28;20020;-71
2023/06/20 08:10:10;;;;;;;13.10;8.55;;;27.60;84.40;;;;;;5071335;28;20032;-71
2023/06/20 08:12:42;;;;;;;11.48;8.77;;;27.60;84.00;;;;;;5071963;28;20382;-72
2023/06/20 08:15:08;;;;;;;9.75;8.82;;;27.60;84.20;;;;;;5071543;28;20469;-70
2023/06/20 08:17:34;;;;;;;9.43;8.48;;;27.60;83.80;;;;;;5071715;28;20386;-70
2023/06/20 08:19:59;;;;;;;12.55;9.57;;;27.50;83.90;;;;;;5071339;28;20024;-71
2023/06/20 08:22:26;;;;;;;14.70;9.65;;;27.50;83.60;;;;;;5071185;28;20386;-71
2023/06/20 08:24:52;;;;;;;13.35;9.73;;;27.40;83.80;;;;;;5071075;28;20380;-70
2023/06/20 08:27:17;;;;;;;9.70;7.63;;;27.40;83.40;;;;;;5066842;28;20025;-70
2023/06/20 08:29:43;;;;;;;8.77;7.47;;;27.40;83.30;;;;;;5051567;28;20074;-71
2023/06/20 08:32:08;;;;;;;7.35;6.65;;;27.40;83.50;;;;;;5061667;28;20036;-71
2023/06/20 08:34:34;;;;;;;9.48;7.65;;;27.40;83.90;;;;;;5071560;28;20024;-70
2023/06/20 08:36:59;;;;;;;7.78;6.97;;;27.40;83.50;;;;;;5070716;28;20610;-71
2023/06/20 08:39:25;;;;;;;8.73;7.70;;;27.40;83.70;;;;;;5071040;28;20103;-70
2023/06/20 08:41:51;;;;;;;8.68;7.50;;;27.50;84.00;;;;;;5071036;28;20100;-70
2023/06/20 08:44:16;;;;;;;10.32;7.25;;;27.50;83.70;;;;;;5071264;28;20145;-70
2023/06/20 08:46:42;;;;;;;8.07;6.70;;;27.50;83.80;;;;;;5071434;28;20036;-70
2023/06/20 08:49:08;;;;;;;9.65;6.55;;;27.60;84.10;;;;;;5070598;28;20592;-70
2023/06/20 08:51:38;;;;;;;8.77;7.47;;;27.70;84.30;;;;;;5071135;28;20033;-70
2023/06/20 08:54:08;;;;;;;6.57;5.78;;;27.80;83.90;;;;;;5070480;28;20040;-71
2023/06/20 08:56:34;;;;;;;7.53;5.18;;;27.90;83.60;;;;;;5069753;28;20561;-70
2023/06/20 08:58:59;;;;;;;6.70;5.60;;;27.90;83.50;;;;;;5070976;28;20115;-71
2023/06/20 09:01:25;;;;;;;6.85;6.18;;;28.00;83.20;;;;;;5069707;28;20135;-71
2023/06/20 09:03:52;;;;;;;5.32;4.68;;;28.00;83.00;;;;;;5074141;28;20364;-70
2023/06/20 09:06:37;;;;;;;6.38;4.70;;;28.10;82.90;;;;;;5081157;28;20036;-71
2023/06/20 09:09:04;;;;;;;5.50;4.28;;;28.30;82.40;;;;;;5059098;28;20035;-71
2023/06/20 09:11:36;;;;;;;4.95;4.07;;;28.40;81.70;;;;;;5071199;28;20023;-70
2023/06/20 09:14:02;;;;;;;6.70;3.92;;;28.30;81.60;;;;;;5070683;28;20539;-71
2023/06/20 09:16:28;;;;;;;5.63;4.47;;;28.20;82.70;;;;;;5071088;28;20037;-70
2023/06/20 09:19:00;;;;;;;5.47;3.67;;;28.20;82.10;;;;;;5070469;28;20016;-71
2023/06/20 09:21:27;;;;;;;5.25;4.55;;;28.20;82.20;;;;;;5070945;28;20056;-71
2023/06/20 09:24:03;;;;;;;4.25;3.35;;;28.30;82.90;;;;;;5070628;28;20443;-71
2023/06/20 09:26:30;;;;;;;8.27;3.40;;;28.30;81.70;;;;;;5065837;28;20056;-70
2023/06/20 09:29:10;;;;;;;3.60;3.17;;;28.40;81.00;;;;;;5070279;28;20448;-71
2023/06/20 09:31:40;;;;;;;3.67;3.33;;;28.50;80.80;;;;;;5070700;28;20021;-71
2023/06/20 09:34:09;;;;;;;3.35;3.03;;;28.50;80.60;;;;;;5070767;28;20125;-71
2023/06/20 09:36:35;;;;;;;8.15;4.70;;;28.70;80.60;;;;;;5059949;28;20024;-70
2023/06/20 09:39:01;;;;;;;4.15;3.25;;;28.80;80.00;;;;;;5070312;28;20561;-71
2023/06/20 09:41:27;;;;;;;5.57;3.38;;;28.80;79.80;;;;;;5070518;28;20044;-71
2023/06/20 09:43:52;;;;;;;3.45;3.10;;;28.70;79.80;;;;;;5069663;28;20024;-71
2023/06/20 09:46:18;;;;;;;4.43;3.50;;;28.70;79.90;;;;;;5070767;28;20044;-70
2023/06/20 09:48:44;;;;;;;3.72;3.10;;;28.90;79.80;;;;;;5071520;28;20025;-71
2023/06/20 09:51:10;;;;;;;4.55;2.95;;;29.10;79.40;;;;;;5073778;28;20497;-71
2023/06/20 09:53:50;;;;;;;3.10;2.80;;;29.20;78.40;;;;;;5074191;28;20064;-71
2023/06/20 09:56:19;;;;;;;4.20;2.83;;;29.30;78.10;;;;;;5073411;28;20573;-71
2023/06/20 09:58:45;;;;;;;4.05;2.92;;;29.40;78.00;;;;;;5074473;28;20024;-71
2023/06/20 10:01:14;;;;;;;4.03;2.85;;;29.50;77.40;;;;;;5072916;28;20444;-71
2023/06/20 10:03:41;;;;;;;3.50;2.90;;;29.60;77.60;;;;;;5073989;28;20020;-71
2023/06/20 10:06:08;;;;;;;4.47;2.92;;;29.90;77.30;;;;;;5073513;28;20029;-71
2023/06/20 10:08:34;;;;;;;5.90;3.22;;;30.00;76.40;;;;;;5074265;28;20057;-71
2023/06/20 10:10:59;;;;;;;4.75;2.90;;;29.90;75.50;;;;;;5072879;28;20056;-71
2023/06/20 10:13:26;;;;;;;5.50;3.22;;;29.70;75.40;;;;;;5074100;28;20032;-71
2023/06/20 10:15:52;;;;;;;2.97;2.50;;;29.70;75.50;;;;;;5071969;28;20043;-71
2023/06/20 10:18:33;;;;;;;3.92;2.00;;;29.70;75.80;;;;;;5073294;28;20067;-71
2023/06/20 10:21:02;;;;;;;5.30;2.83;;;29.80;75.40;;;;;;5073571;28;20095;-71
2023/06/20 10:23:32;;;;;;;3.33;2.47;;;29.90;75.20;;;;;;5073891;28;20033;-71
2023/06/20 10:26:00;;;;;;;4.22;1.55;;;30.10;75.10;;;;;;5072578;28;20119;-71
2023/06/20 10:28:26;;;;;;;2.90;1.92;;;30.20;74.20;;;;;;5073827;28;20497;-71
2023/06/20 10:31:02;;;;;;;2.70;2.17;;;30.30;73.50;;;;;;5072753;28;20048;-71
2023/06/20 10:33:39;;;;;;;1.85;1.65;;;30.30;73.40;;;;;;5073615;28;20478;-71
2023/06/20 10:36:09;;;;;;;1.92;1.60;;;30.40;73.20;;;;;;5072811;28;20044;-71
2023/06/20 10:38:59;;;;;;;2.78;1.70;;;30.40;73.00;;;;;;5073594;28;20455;-71
2023/06/20 10:41:28;;;;;;;2.58;1.60;;;30.40;72.50;;;;;;5073275;28;20098;-71
2023/06/20 10:43:58;;;;;;;2.80;1.55;;;30.40;71.60;;;;;;5073164;28;20432;-71
2023/06/20 10:46:36;;;;;;;3.55;1.92;;;30.40;72.10;;;;;;5073207;28;20087;-71
2023/06/20 10:49:03;;;;;;;3.20;1.98;;;30.50;72.70;;;;;;5073017;28;20025;-71
2023/06/20 10:51:29;;;;;;;3.55;2.10;;;30.40;72.10;;;;;;5073065;28;20044;-71
2023/06/20 10:54:11;;;;;;;2.33;2.00;;;30.40;72.10;;;;;;5072534;28;20359;-71
2023/06/20 10:56:37;;;;;;;3.47;2.13;;;30.50;72.00;;;;;;5073180;28;20198;-71
2023/06/20 10:59:13;;;;;;;2.70;1.70;;;30.40;72.50;;;;;;5072310;28;20116;-71
2023/06/20 11:01:39;;;;;;;3.35;2.13;;;30.40;72.50;;;;;;5072779;28;20061;-71
2023/06/20 11:04:13;;;;;;;2.38;1.90;;;30.40;72.50;;;;;;5072728;28;20493;-71
2023/06/20 11:06:39;;;;;;;1.85;1.40;;;30.60;72.50;;;;;;5052825;28;20112;-71
2023/06/20 11:09:05;;;;;;;2.10;1.70;;;30.60;71.90;;;;;;5063067;28;20036;-71
2023/06/20 11:11:34;;;;;;;2.17;1.58;;;30.60;72.30;;;;;;5072571;28;20486;-71
2023/06/20 11:14:19;;;;;;;1.80;1.20;;;30.70;72.20;;;;;;5071827;28;20040;-71
2023/06/20 11:16:46;;;;;;;2.25;1.15;;;30.80;72.10;;;;;;5071286;28;20032;-71
2023/06/20 11:19:13;;;;;;;4.57;1.40;;;30.80;70.70;;;;;;5072289;28;20017;-71
2023/06/20 11:21:39;;;;;;;2.92;1.73;;;30.80;69.90;;;;;;5072780;28;20028;-71
2023/06/20 11:24:05;;;;;;;2.20;1.67;;;30.80;69.40;;;;;;5070841;28;20385;-71
2023/06/20 11:26:32;;;;;;;3.45;1.27;;;30.80;69.40;;;;;;5072305;28;20050;-71
2023/06/20 11:29:05;;;;;;;1.77;1.20;;;30.90;69.20;;;;;;5071716;28;20036;-71
2023/06/20 11:31:31;;;;;;;4.07;0.88;;;30.90;69.20;;;;;;5072245;28;20484;-71
2023/06/20 11:34:11;;;;;;;2.35;1.20;;;30.80;68.90;;;;;;5071798;28;20370;-71
2023/06/20 11:36:39;;;;;;;1.70;1.13;;;30.70;68.60;;;;;;5071835;28;20147;-71
2023/06/20 11:39:09;;;;;;;1.33;0.98;;;30.60;69.20;;;;;;5071938;28;20028;-71
2023/06/20 11:41:35;;;;;;;1.83;1.00;;;30.70;68.60;;;;;;5072130;28;20026;-71
2023/06/20 11:44:03;;;;;;;2.45;1.00;;;31.00;68.10;;;;;;5070737;28;20025;-70
2023/06/20 11:46:29;;;;;;;2.45;1.40;;;31.00;68.00;;;;;;5071937;28;20131;-71
2023/06/20 11:48:58;;;;;;;1.50;1.05;;;31.10;68.00;;;;;;5071411;28;20096;-71
2023/06/20 11:51:25;;;;;;;3.28;1.42;;;31.20;68.30;;;;;;5071676;28;20474;-71
2023/06/20 11:54:07;;;;;;;2.55;1.10;;;31.20;68.10;;;;;;5071945;28;20023;-71
2023/06/20 11:56:32;;;;;;;3.28;1.40;;;31.30;67.90;;;;;;5071281;28;20421;-71
2023/06/20 11:58:58;;;;;;;3.28;1.30;;;31.30;67.50;;;;;;5071347;28;20028;-71
2023/06/20 12:01:25;;;;;;;4.97;1.02;;;31.60;67.00;;;;;;5072068;28;20052;-71
2023/06/20 12:04:12;;;;;;;2.88;1.08;;;31.60;66.60;;;;;;5069753;28;20555;-71
2023/06/20 12:06:44;;;;;;;3.47;1.15;;;31.80;66.50;;;;;;5071867;28;20036;-71
2023/06/20 12:09:18;;;;;;;2.65;1.25;;;31.80;65.40;;;;;;5071507;28;20075;-71
2023/06/20 12:11:54;;;;;;;1.50;1.10;;;31.90;65.30;;;;;;5066819;28;20379;-71
2023/06/20 12:14:23;;;;;;;2.58;0.90;;;31.90;65.40;;;;;;5071525;28;20512;-71
2023/06/20 12:16:52;;;;;;;4.13;1.10;;;32.10;64.70;;;;;;5070102;28;20472;-71
2023/06/20 12:19:19;;;;;;;1.88;1.05;;;32.10;64.10;;;;;;5071458;28;20463;-71
2023/06/20 12:21:45;;;;;;;2.45;1.10;;;32.10;63.80;;;;;;5069693;28;20028;-71
2023/06/20 12:24:11;;;;;;;2.30;1.10;;;32.20;64.00;;;;;;5055095;28;20500;-71
2023/06/20 12:26:37;;;;;;;3.65;0.95;;;32.30;63.70;;;;;;5071368;28;20083;-71
2023/06/20 12:29:04;;;;;;;2.10;1.20;;;32.30;63.80;;;;;;5057199;28;20025;-71
2023/06/20 12:31:30;;;;;;;1.60;1.00;;;32.30;63.70;;;;;;5067299;28;20059;-71
2023/06/20 12:33:55;;;;;;;2.17;1.05;;;32.40;63.50;;;;;;5070782;28;20086;-71
2023/06/20 12:36:21;;;;;;;4.82;1.17;;;32.50;63.50;;;;;;5071288;28;20390;-71
2023/06/20 12:38:47;;;;;;;3.97;1.20;;;32.50;63.20;;;;;;5071531;28;20474;-71
2023/06/20 12:41:13;;;;;;;2.17;1.13;;;32.50;63.50;;;;;;5071167;28;20044;-71
2023/06/20 12:43:39;;;;;;;1.80;0.90;;;32.60;63.10;;;;;;5071010;28;20086;-71
2023/06/20 12:46:05;;;;;;;1.45;0.90;;;32.50;62.00;;;;;;5070740;28;20032;-71